Time;durP1;ratioP1;P1;durP2;ratioP2;P2;SDS_P1;SDS_P2;PMS_P1;PMS_P2;Temp;Humidity;BMP_temperature;BMP_pressure;BME280_temperature;BME280_humidity;BME280_pressure;Samples;Min_cycle;Max_cycle;Signal;HPM_P1;HPM_P2
2023/06/26 00:00:56;;;;;;;4.47;1.60;;;19.80;99.90;;;;;;4888532;29;20131;-75
2023/06/26 00:03:23;;;;;;;4.18;1.90;;;19.80;99.90;;;;;;4894937;29;20053;-75
2023/06/26 00:05:50;;;;;;;2.92;1.40;;;19.70;99.90;;;;;;4892275;29;20067;-75
2023/06/26 00:08:17;;;;;;;5.05;2.03;;;19.70;99.90;;;;;;4891210;29;20044;-75
2023/06/26 00:10:46;;;;;;;3.30;1.27;;;19.70;99.90;;;;;;4895928;29;20436;-75
2023/06/26 00:13:13;;;;;;;3.85;1.73;;;19.70;99.90;;;;;;4892807;29;21823;-75
2023/06/26 00:15:41;;;;;;;5.28;1.83;;;19.60;99.90;;;;;;4901658;29;20056;-76
2023/06/26 00:18:08;;;;;;;2.95;1.50;;;19.60;99.90;;;;;;4904347;29;20051;-75
2023/06/26 00:20:35;;;;;;;3.60;1.33;;;19.60;99.90;;;;;;4886370;29;20055;-75
2023/06/26 00:23:07;;;;;;;3.30;1.65;;;19.60;99.90;;;;;;4892889;29;20063;-75
2023/06/26 00:25:34;;;;;;;4.03;1.52;;;19.50;99.90;;;;;;4897084;29;20132;-75
2023/06/26 00:28:04;;;;;;;3.95;1.40;;;19.50;99.90;;;;;;4904772;29;20060;-75
2023/06/26 00:30:32;;;;;;;4.40;1.40;;;19.50;99.90;;;;;;4897953;29;20055;-75
2023/06/26 00:32:59;;;;;;;2.92;1.73;;;19.50;99.90;;;;;;4877825;29;20101;-75
2023/06/26 00:35:26;;;;;;;3.90;1.50;;;19.50;99.90;;;;;;4884961;29;20059;-75
2023/06/26 00:37:53;;;;;;;4.55;1.60;;;19.40;99.90;;;;;;4889440;29;20071;-75
2023/06/26 00:40:20;;;;;;;2.92;1.30;;;19.40;99.90;;;;;;4876838;29;20060;-75
2023/06/26 00:42:47;;;;;;;3.58;1.50;;;19.50;99.90;;;;;;4905218;29;20063;-75
2023/06/26 00:45:14;;;;;;;2.92;1.73;;;19.50;99.90;;;;;;4870844;29;20044;-75
2023/06/26 00:47:44;;;;;;;5.20;1.92;;;19.40;99.90;;;;;;4895113;29;20050;-75
2023/06/26 00:50:11;;;;;;;4.70;1.33;;;19.40;99.90;;;;;;4882686;29;20121;-75
2023/06/26 00:52:39;;;;;;;4.75;1.67;;;19.40;99.90;;;;;;4896758;29;20092;-75
2023/06/26 00:55:07;;;;;;;4.05;2.10;;;19.40;99.90;;;;;;4882700;29;20063;-75
2023/06/26 00:57:35;;;;;;;4.78;1.75;;;19.40;99.90;;;;;;4883138;29;20083;-75
2023/06/26 01:00:03;;;;;;;4.78;1.83;;;19.50;99.90;;;;;;4899147;29;20575;-75
2023/06/26 01:02:33;;;;;;;4.55;1.65;;;19.50;99.90;;;;;;4902152;29;20060;-75
2023/06/26 01:05:06;;;;;;;3.72;1.70;;;19.50;99.90;;;;;;4905279;29;20052;-75
2023/06/26 01:07:36;;;;;;;3.25;1.85;;;19.50;99.90;;;;;;4893933;29;20062;-76
2023/06/26 01:10:05;;;;;;;3.83;1.50;;;19.50;99.90;;;;;;4885513;29;22804;-75
2023/06/26 01:12:33;;;;;;;3.00;2.28;;;19.50;99.90;;;;;;4897263;29;20080;-75
2023/06/26 01:15:00;;;;;;;3.13;1.70;;;19.50;99.90;;;;;;4872274;29;20159;-76
2023/06/26 01:17:32;;;;;;;4.85;1.40;;;19.40;99.90;;;;;;4900956;29;22842;-75
2023/06/26 01:20:00;;;;;;;3.97;1.45;;;19.40;99.90;;;;;;4885112;29;20982;-77
2023/06/26 01:22:47;;;;;;;4.05;1.35;;;19.40;99.90;;;;;;4901563;29;22692;-75
2023/06/26 01:25:38;;;;;;;4.20;1.77;;;19.40;99.90;;;;;;4897158;29;20577;-75
2023/06/26 01:28:07;;;;;;;4.07;1.40;;;19.40;99.90;;;;;;4900181;29;22747;-75
2023/06/26 01:30:38;;;;;;;5.13;1.42;;;19.40;99.90;;;;;;4897542;29;22804;-75
2023/06/26 01:33:05;;;;;;;3.00;1.30;;;19.40;99.90;;;;;;4874221;29;20083;-75
2023/06/26 01:35:33;;;;;;;3.88;1.35;;;19.40;99.90;;;;;;4889959;29;20060;-75
2023/06/26 01:38:17;;;;;;;2.72;1.77;;;19.40;99.90;;;;;;4871858;29;20052;-75
2023/06/26 01:40:45;;;;;;;3.08;1.60;;;19.30;99.90;;;;;;4900605;29;23035;-75
2023/06/26 01:43:24;;;;;;;6.68;1.75;;;19.30;99.90;;;;;;4891777;29;20142;-75
2023/06/26 01:45:56;;;;;;;5.60;1.65;;;19.30;99.90;;;;;;4890802;29;20040;-75
2023/06/26 01:48:33;;;;;;;3.15;1.65;;;19.30;99.90;;;;;;4898112;29;20144;-75
2023/06/26 01:51:01;;;;;;;4.68;1.83;;;19.20;99.90;;;;;;4874780;29;22797;-75
2023/06/26 01:53:35;;;;;;;3.10;1.45;;;19.30;99.90;;;;;;4889630;29;20119;-75
2023/06/26 01:56:12;;;;;;;6.40;1.75;;;19.30;99.90;;;;;;4897924;29;20052;-75
2023/06/26 01:58:45;;;;;;;2.80;1.40;;;19.30;99.90;;;;;;4872634;29;20127;-75
2023/06/26 02:01:12;;;;;;;3.42;1.40;;;19.30;99.90;;;;;;4870296;29;20439;-75
2023/06/26 02:03:40;;;;;;;8.27;1.80;;;19.30;99.90;;;;;;4898157;29;20172;-77
2023/06/26 02:06:07;;;;;;;4.03;1.60;;;19.30;99.90;;;;;;4891481;29;20040;-77
2023/06/26 02:08:35;;;;;;;3.78;1.70;;;19.30;99.90;;;;;;4889244;29;20052;-77
2023/06/26 02:11:02;;;;;;;3.45;1.27;;;19.30;99.90;;;;;;4894605;29;20053;-77
2023/06/26 02:13:29;;;;;;;4.03;1.58;;;19.20;99.90;;;;;;4887776;29;21018;-77
2023/06/26 02:15:57;;;;;;;4.63;1.60;;;19.20;99.90;;;;;;4883759;29;21398;-77
2023/06/26 02:18:25;;;;;;;4.57;1.88;;;19.20;99.90;;;;;;4901816;29;20107;-75
2023/06/26 02:20:52;;;;;;;3.17;1.40;;;18.60;99.90;;;;;;4907962;29;22792;-75
2023/06/26 02:23:21;;;;;;;3.97;2.10;;;19.20;99.90;;;;;;4879641;29;20062;-75
2023/06/26 02:25:48;;;;;;;4.30;1.40;;;19.20;99.90;;;;;;4889721;29;20132;-75
2023/06/26 02:28:15;;;;;;;4.95;1.75;;;19.10;99.90;;;;;;4891228;29;20154;-75
2023/06/26 02:30:43;;;;;;;5.38;1.50;;;19.10;99.90;;;;;;4892048;29;20059;-75
2023/06/26 02:33:10;;;;;;;2.97;1.23;;;19.10;99.90;;;;;;4891694;29;20076;-75
2023/06/26 02:35:37;;;;;;;6.80;2.40;;;19.10;99.90;;;;;;4890562;29;20052;-75
2023/06/26 02:38:04;;;;;;;4.80;2.03;;;19.10;99.90;;;;;;4880618;29;20103;-75
2023/06/26 02:40:33;;;;;;;4.22;2.10;;;19.10;99.90;;;;;;4879650;29;20052;-75
2023/06/26 02:43:01;;;;;;;4.90;2.13;;;19.10;99.90;;;;;;4894011;29;20059;-77
2023/06/26 02:45:30;;;;;;;7.18;2.28;;;19.00;99.90;;;;;;4891627;29;20063;-77
2023/06/26 02:47:58;;;;;;;5.63;1.90;;;18.90;99.90;;;;;;4897319;29;20044;-74
2023/06/26 02:50:25;;;;;;;5.97;2.38;;;19.00;99.90;;;;;;4903012;29;20044;-75
2023/06/26 02:53:04;;;;;;;4.82;2.00;;;19.00;99.90;;;;;;4892893;29;22345;-75
2023/06/26 02:55:31;;;;;;;6.13;2.25;;;19.10;99.90;;;;;;4892221;29;23505;-76
2023/06/26 02:57:58;;;;;;;5.30;3.00;;;19.10;99.90;;;;;;4906983;29;20052;-75
2023/06/26 03:00:26;;;;;;;5.10;2.63;;;19.10;99.90;;;;;;4887661;29;20119;-75
2023/06/26 03:02:54;;;;;;;5.63;2.33;;;19.20;99.90;;;;;;4896653;29;20136;-75
2023/06/26 03:05:23;;;;;;;8.32;2.90;;;19.10;99.90;;;;;;4888111;29;23620;-75
2023/06/26 03:07:51;;;;;;;7.28;3.22;;;19.10;99.90;;;;;;4904586;29;20608;-75
2023/06/26 03:10:19;;;;;;;5.68;3.38;;;19.20;99.90;;;;;;4890990;29;20143;-76
2023/06/26 03:12:46;;;;;;;5.07;2.70;;;19.00;99.90;;;;;;4878849;29;20135;-77
2023/06/26 03:15:13;;;;;;;3.53;2.50;;;18.90;99.90;;;;;;4900889;29;20127;-77
2023/06/26 03:17:40;;;;;;;4.88;2.40;;;19.00;99.90;;;;;;4887690;29;20067;-77
2023/06/26 03:20:11;;;;;;;7.57;2.60;;;19.10;99.90;;;;;;4893661;29;21037;-77
2023/06/26 03:22:46;;;;;;;5.90;2.67;;;19.10;99.90;;;;;;4893912;29;20051;-77
2023/06/26 03:25:15;;;;;;;6.03;3.60;;;19.10;99.90;;;;;;4893783;29;20092;-77
2023/06/26 03:27:43;;;;;;;5.60;3.10;;;19.10;99.90;;;;;;4901537;29;20044;-77
2023/06/26 03:30:11;;;;;;;6.85;3.63;;;19.10;99.90;;;;;;4889334;29;20044;-77
2023/06/26 03:32:41;;;;;;;8.45;3.60;;;19.10;99.90;;;;;;4886108;29;22729;-77
2023/06/26 03:35:09;;;;;;;9.02;3.47;;;18.90;99.90;;;;;;4900167;29;20147;-77
2023/06/26 03:37:37;;;;;;;6.90;4.40;;;19.00;99.90;;;;;;4909733;29;20047;-77
2023/06/26 03:40:05;;;;;;;6.47;4.07;;;19.10;99.90;;;;;;4883956;29;20051;-77
2023/06/26 03:42:33;;;;;;;5.82;3.58;;;19.00;99.90;;;;;;4894407;29;20056;-77
2023/06/26 03:45:01;;;;;;;5.78;3.72;;;19.20;99.90;;;;;;4889960;29;20049;-77
2023/06/26 03:47:29;;;;;;;8.25;5.07;;;19.20;99.90;;;;;;4887512;29;20401;-77
2023/06/26 03:49:57;;;;;;;9.35;3.65;;;19.20;99.90;;;;;;4904894;29;20040;-77
2023/06/26 03:52:25;;;;;;;8.88;4.57;;;19.20;99.90;;;;;;4886442;29;20045;-77
2023/06/26 03:54:55;;;;;;;9.02;5.05;;;19.20;99.90;;;;;;4878202;29;20091;-77
2023/06/26 03:57:23;;;;;;;7.00;4.20;;;19.20;99.90;;;;;;4872724;29;20068;-77
2023/06/26 03:59:53;;;;;;;9.88;4.88;;;19.20;99.90;;;;;;4872069;29;20175;-77
2023/06/26 04:02:22;;;;;;;8.38;4.53;;;19.10;99.90;;;;;;4883659;29;20072;-77
2023/06/26 04:04:53;;;;;;;8.75;4.28;;;19.10;99.90;;;;;;4889852;29;20076;-77
2023/06/26 04:07:21;;;;;;;8.82;4.80;;;19.10;99.90;;;;;;4885768;29;20044;-77
2023/06/26 04:09:48;;;;;;;10.70;4.63;;;19.30;99.90;;;;;;4892894;29;20044;-77
2023/06/26 04:12:16;;;;;;;7.45;4.95;;;18.80;99.90;;;;;;4898793;29;20055;-76
2023/06/26 04:14:47;;;;;;;8.00;5.28;;;19.00;99.90;;;;;;4894449;29;20052;-77
2023/06/26 04:17:14;;;;;;;7.15;4.90;;;19.50;99.90;;;;;;4886511;29;20052;-77
2023/06/26 04:19:44;;;;;;;8.85;5.18;;;19.60;99.90;;;;;;4850934;29;20055;-77
2023/06/26 04:22:12;;;;;;;9.23;4.80;;;19.60;99.90;;;;;;4852528;29;20053;-77
2023/06/26 04:24:39;;;;;;;7.72;5.00;;;18.40;99.90;;;;;;4837161;29;20069;-77
2023/06/26 04:27:13;;;;;;;6.60;4.50;;;19.90;99.90;;;;;;4872296;29;20065;-77
2023/06/26 04:29:44;;;;;;;10.38;5.38;;;20.20;99.90;;;;;;4856755;29;20147;-77
2023/06/26 04:32:14;;;;;;;9.57;4.82;;;19.80;99.90;;;;;;4871282;29;20140;-77
2023/06/26 04:34:45;;;;;;;7.35;4.28;;;19.90;99.90;;;;;;4871257;29;20060;-77
2023/06/26 04:37:16;;;;;;;7.32;4.75;;;20.00;99.90;;;;;;4851386;29;20053;-77
2023/06/26 04:39:43;;;;;;;7.53;5.10;;;20.10;99.90;;;;;;4853845;29;20160;-77
2023/06/26 04:42:12;;;;;;;7.85;4.32;;;20.10;99.90;;;;;;4869942;29;20112;-78
2023/06/26 04:44:40;;;;;;;8.13;5.10;;;20.20;99.90;;;;;;4837932;29;20398;-77
2023/06/26 04:47:08;;;;;;;7.60;4.60;;;21.10;99.90;;;;;;4857586;29;20048;-77
2023/06/26 04:49:36;;;;;;;8.43;4.47;;;20.50;99.90;;;;;;4856365;29;20430;-77
2023/06/26 04:52:05;;;;;;;8.50;4.82;;;20.50;99.90;;;;;;4891376;29;20508;-76
2023/06/26 04:54:33;;;;;;;6.07;4.40;;;20.50;99.90;;;;;;4896234;29;20056;-77
2023/06/26 04:57:00;;;;;;;7.72;4.97;;;20.60;99.90;;;;;;4872970;29;20080;-77
2023/06/26 04:59:28;;;;;;;7.25;4.75;;;20.70;99.90;;;;;;4884240;29;20051;-77
2023/06/26 05:01:55;;;;;;;8.18;4.50;;;20.80;99.90;;;;;;4887311;29;20855;-77
2023/06/26 05:04:22;;;;;;;7.18;4.00;;;20.80;99.90;;;;;;4899704;29;20568;-77
2023/06/26 05:06:50;;;;;;;7.03;4.30;;;21.00;99.90;;;;;;4878007;29;20043;-77
2023/06/26 05:09:17;;;;;;;6.20;4.45;;;21.10;99.90;;;;;;4890888;29;20048;-77
2023/06/26 05:11:48;;;;;;;11.27;5.13;;;21.10;99.90;;;;;;4878360;29;20084;-78
2023/06/26 05:14:15;;;;;;;7.60;4.25;;;20.90;99.90;;;;;;4901674;29;20071;-77
2023/06/26 05:16:42;;;;;;;10.27;5.80;;;21.10;99.80;;;;;;4886835;29;20063;-77
2023/06/26 05:19:10;;;;;;;7.57;4.50;;;21.40;99.90;;;;;;4887070;29;22565;-78
2023/06/26 05:21:38;;;;;;;8.65;5.00;;;21.50;99.90;;;;;;4879578;29;20471;-78
2023/06/26 05:24:06;;;;;;;6.32;4.30;;;21.60;99.90;;;;;;4857375;29;20060;-77
2023/06/26 05:26:34;;;;;;;6.70;4.10;;;21.70;99.50;;;;;;4868367;29;20513;-77
2023/06/26 05:29:03;;;;;;;5.75;4.28;;;21.80;99.50;;;;;;4854682;29;20053;-77
2023/06/26 05:31:33;;;;;;;7.82;4.70;;;22.00;99.00;;;;;;4869710;29;20201;-77
2023/06/26 05:34:03;;;;;;;5.28;4.10;;;22.10;96.60;;;;;;4869957;29;20045;-77
2023/06/26 05:36:33;;;;;;;6.45;3.08;;;22.20;95.70;;;;;;4855242;29;20052;-77
2023/06/26 05:39:00;;;;;;;6.18;4.10;;;22.50;95.40;;;;;;4855841;29;22791;-77
2023/06/26 05:41:28;;;;;;;7.82;4.13;;;22.50;95.20;;;;;;4859092;29;21095;-78
2023/06/26 05:43:55;;;;;;;7.15;3.80;;;22.70;93.60;;;;;;4869509;29;20089;-77
2023/06/26 05:46:22;;;;;;;6.72;4.22;;;22.70;92.60;;;;;;4882521;29;20511;-77
2023/06/26 05:48:49;;;;;;;6.43;3.80;;;22.90;92.50;;;;;;4879441;29;20500;-77
2023/06/26 05:51:17;;;;;;;4.70;3.38;;;22.90;91.60;;;;;;4862687;29;20139;-76
2023/06/26 05:53:44;;;;;;;7.00;4.70;;;23.00;91.70;;;;;;4860218;29;20147;-77
2023/06/26 05:56:12;;;;;;;8.95;4.60;;;23.10;91.50;;;;;;4883070;29;20441;-77
2023/06/26 05:58:42;;;;;;;5.80;3.80;;;23.30;91.80;;;;;;4842397;29;20052;-77
2023/06/26 06:01:09;;;;;;;7.80;4.47;;;23.40;91.80;;;;;;4863288;29;20174;-77
2023/06/26 06:03:37;;;;;;;7.82;4.25;;;23.50;90.30;;;;;;4867295;29;20119;-77
2023/06/26 06:06:04;;;;;;;7.20;3.85;;;23.50;90.00;;;;;;4859329;29;20081;-77
2023/06/26 06:08:32;;;;;;;7.72;4.10;;;23.60;89.80;;;;;;4855194;29;20135;-77
2023/06/26 06:11:00;;;;;;;7.00;3.85;;;23.70;89.50;;;;;;4856780;29;20428;-77
2023/06/26 06:13:28;;;;;;;5.60;3.70;;;23.70;88.90;;;;;;4845514;29;22342;-77
2023/06/26 06:15:56;;;;;;;8.30;3.75;;;23.80;88.70;;;;;;4850817;29;20063;-77
2023/06/26 06:18:23;;;;;;;8.45;3.55;;;23.90;89.50;;;;;;4863445;29;20040;-80
2023/06/26 06:20:50;;;;;;;8.32;3.60;;;24.00;86.20;;;;;;4852089;29;20206;-77
2023/06/26 06:23:17;;;;;;;6.28;3.50;;;24.00;88.40;;;;;;4868600;29;20056;-79
2023/06/26 06:25:45;;;;;;;6.47;3.80;;;24.10;87.20;;;;;;4858378;29;20052;-78
2023/06/26 06:28:16;;;;;;;6.25;4.10;;;24.20;87.30;;;;;;4854445;29;20064;-78
2023/06/26 06:30:43;;;;;;;7.07;3.50;;;24.20;85.20;;;;;;4859309;29;20673;-82
2023/06/26 06:33:12;;;;;;;7.78;3.70;;;24.30;85.00;;;;;;4874692;29;20045;-77
2023/06/26 06:35:39;;;;;;;5.00;3.50;;;24.20;83.70;;;;;;4855811;29;20060;-77
2023/06/26 06:38:06;;;;;;;5.82;3.63;;;24.30;84.20;;;;;;4860510;29;20263;-78
2023/06/26 06:40:33;;;;;;;9.00;4.40;;;24.30;84.10;;;;;;4846979;29;20063;-77
2023/06/26 06:43:00;;;;;;;6.78;3.22;;;24.40;84.30;;;;;;4857444;29;20056;-78
2023/06/26 06:45:28;;;;;;;5.55;2.97;;;24.60;85.40;;;;;;4860120;29;20065;-78
2023/06/26 06:47:55;;;;;;;6.57;3.70;;;24.70;84.60;;;;;;4863854;29;20215;-77
2023/06/26 06:50:22;;;;;;;6.97;3.88;;;24.90;84.70;;;;;;4846940;29;20045;-78
2023/06/26 06:52:49;;;;;;;7.00;3.03;;;25.00;84.30;;;;;;4863885;29;20059;-77
2023/06/26 06:55:16;;;;;;;7.40;3.33;;;25.00;85.10;;;;;;4860564;29;20186;-78
2023/06/26 06:57:43;;;;;;;4.72;3.22;;;25.20;84.60;;;;;;4868069;29;20272;-78
2023/06/26 07:00:14;;;;;;;5.05;3.47;;;25.20;83.50;;;;;;4861250;29;21060;-77
2023/06/26 07:02:44;;;;;;;5.57;3.28;;;25.20;83.00;;;;;;4844646;29;20056;-77
2023/06/26 07:05:16;;;;;;;6.10;3.40;;;25.40;84.40;;;;;;4874030;29;20111;-76
2023/06/26 07:07:43;;;;;;;;;;;25.50;82.10;;;;;;4869878;29;20046;-77
2023/06/26 07:10:13;;;;;;;6.35;3.75;;;25.60;82.10;;;;;;4864218;29;19927;-77
2023/06/26 07:12:40;;;;;;;4.55;2.72;;;25.60;81.60;;;;;;4871909;29;20139;-78
2023/06/26 07:15:08;;;;;;;4.80;3.33;;;25.80;82.30;;;;;;4862302;29;20192;-78
2023/06/26 07:17:37;;;;;;;5.32;3.85;;;25.80;81.20;;;;;;4866606;29;20151;-77
2023/06/26 07:20:08;;;;;;;5.25;3.13;;;25.80;79.80;;;;;;4853867;29;20076;-78
2023/06/26 07:22:36;;;;;;;6.43;3.50;;;25.80;78.90;;;;;;4859728;29;20060;-79
2023/06/26 07:25:04;;;;;;;5.05;3.33;;;25.80;77.00;;;;;;4855666;29;20119;-78
2023/06/26 07:27:33;;;;;;;5.78;3.90;;;25.80;76.00;;;;;;4862516;29;20047;-79
2023/06/26 07:30:00;;;;;;;6.53;3.65;;;25.90;76.50;;;;;;4858083;29;20052;-77
2023/06/26 07:32:28;;;;;;;5.97;4.20;;;26.00;76.80;;;;;;4859892;29;20080;-79
2023/06/26 07:34:55;;;;;;;5.65;4.32;;;26.00;75.40;;;;;;4873731;29;20043;-77
2023/06/26 07:37:23;;;;;;;6.38;3.60;;;26.10;76.30;;;;;;4858291;29;20056;-78
2023/06/26 07:39:50;;;;;;;9.13;4.22;;;26.20;78.50;;;;;;4845075;29;20064;-77
2023/06/26 07:42:17;;;;;;;5.40;3.70;;;26.20;77.80;;;;;;4852901;29;20536;-77
2023/06/26 07:44:44;;;;;;;7.50;4.28;;;26.30;76.60;;;;;;4859953;29;20071;-78
2023/06/26 07:47:11;;;;;;;8.18;4.45;;;26.20;75.70;;;;;;4861521;29;22415;-77
2023/06/26 07:49:40;;;;;;;5.70;3.80;;;26.20;75.80;;;;;;4870166;29;20054;-77
2023/06/26 07:52:10;;;;;;;4.90;3.38;;;26.30;77.00;;;;;;4871980;29;20074;-80
2023/06/26 07:54:37;;;;;;;7.22;3.97;;;26.30;74.70;;;;;;4849745;29;22373;-79
2023/06/26 07:57:08;;;;;;;5.25;3.60;;;26.30;74.50;;;;;;4862790;29;20134;-78
2023/06/26 07:59:36;;;;;;;5.15;4.00;;;26.00;72.60;;;;;;4878212;29;22354;-79
2023/06/26 08:02:03;;;;;;;5.30;4.00;;;26.10;73.50;;;;;;4863267;29;22208;-80
2023/06/26 08:04:31;;;;;;;10.63;4.25;;;26.10;73.70;;;;;;4853145;29;20049;-80
2023/06/26 08:07:00;;;;;;;5.05;4.03;;;26.20;73.80;;;;;;4854473;29;20044;-79
2023/06/26 08:09:29;;;;;;;7.38;3.80;;;26.20;74.40;;;;;;4861453;29;20055;-79
2023/06/26 08:11:57;;;;;;;6.10;3.85;;;26.40;75.10;;;;;;4857850;29;20040;-79
2023/06/26 08:14:24;;;;;;;7.35;3.90;;;26.50;74.40;;;;;;4854108;29;20539;-78
2023/06/26 08:16:52;;;;;;;4.78;3.92;;;26.50;72.90;;;;;;4853232;29;20052;-79
2023/06/26 08:19:19;;;;;;;6.63;4.38;;;26.40;73.40;;;;;;4882691;29;20613;-80
2023/06/26 08:21:47;;;;;;;6.18;3.65;;;26.30;72.30;;;;;;4857525;29;20060;-79
2023/06/26 08:24:18;;;;;;;4.93;3.60;;;26.20;72.90;;;;;;4866446;29;20143;-81
2023/06/26 08:26:47;;;;;;;4.13;3.45;;;26.40;75.40;;;;;;4853573;29;20589;-80
2023/06/26 08:29:14;;;;;;;5.95;4.25;;;26.50;74.30;;;;;;4859117;29;20126;-78
2023/06/26 08:31:43;;;;;;;4.78;3.50;;;26.50;76.10;;;;;;4872043;29;20052;-82
2023/06/26 08:34:10;;;;;;;4.63;3.35;;;26.80;74.20;;;;;;4843394;29;20079;-79
2023/06/26 08:36:37;;;;;;;5.18;3.85;;;26.70;72.90;;;;;;4868989;29;20435;-79
2023/06/26 08:39:05;;;;;;;6.35;3.75;;;26.70;74.10;;;;;;4848527;29;20056;-80
2023/06/26 08:41:33;;;;;;;6.43;3.90;;;26.70;74.10;;;;;;4845435;29;20054;-80
2023/06/26 08:44:00;;;;;;;7.75;3.35;;;26.70;72.70;;;;;;4870138;29;20528;-79
2023/06/26 08:46:28;;;;;;;6.93;4.00;;;26.70;72.30;;;;;;4856574;29;20492;-79
2023/06/26 08:49:00;;;;;;;4.70;3.72;;;26.90;73.70;;;;;;4865121;29;20137;-82
2023/06/26 08:51:29;;;;;;;7.32;3.60;;;27.00;73.00;;;;;;4837238;29;20048;-79
2023/06/26 08:53:59;;;;;;;6.63;3.92;;;27.00;71.50;;;;;;4869315;29;20143;-80
2023/06/26 08:56:40;;;;;;;7.00;3.45;;;27.00;70.70;;;;;;4871013;29;20056;-78
2023/06/26 08:59:10;;;;;;;6.97;4.18;;;27.00;71.80;;;;;;4836330;29;20060;-79
2023/06/26 09:01:37;;;;;;;9.40;3.97;;;27.00;70.90;;;;;;4867639;29;20056;-79
2023/06/26 09:04:05;;;;;;;4.93;3.72;;;26.80;71.00;;;;;;4858244;29;20394;-81
2023/06/26 09:06:33;;;;;;;5.88;3.67;;;27.00;74.10;;;;;;4848747;29;20056;-80
2023/06/26 09:09:01;;;;;;;6.05;4.03;;;27.20;76.60;;;;;;4852692;29;20063;-78
2023/06/26 09:11:28;;;;;;;7.00;3.95;;;26.90;69.20;;;;;;4858763;29;20059;-79
2023/06/26 09:13:55;;;;;;;6.38;4.07;;;26.80;70.30;;;;;;4870787;29;20203;-79
2023/06/26 09:16:26;;;;;;;5.97;3.88;;;27.00;71.50;;;;;;4867470;29;20047;-82
2023/06/26 09:18:56;;;;;;;5.40;3.37;;;27.20;72.10;;;;;;4853446;29;20063;-79
2023/06/26 09:21:24;;;;;;;5.32;3.53;;;27.40;71.40;;;;;;4852484;29;20313;-78
2023/06/26 09:23:54;;;;;;;6.07;3.83;;;27.40;70.90;;;;;;4856882;29;20855;-82
2023/06/26 09:26:22;;;;;;;5.72;3.72;;;27.40;72.10;;;;;;4853220;29;20774;-79
2023/06/26 09:28:50;;;;;;;7.18;4.20;;;27.30;71.50;;;;;;4869749;29;20222;-79
2023/06/26 09:31:17;;;;;;;5.25;3.80;;;27.30;72.20;;;;;;4858800;29;20048;-79
2023/06/26 09:34:05;;;;;;;5.68;3.80;;;27.30;71.40;;;;;;4852002;29;20358;-78
2023/06/26 09:36:33;;;;;;;6.82;4.00;;;27.40;72.50;;;;;;4868428;29;20127;-79
2023/06/26 09:39:08;;;;;;;7.22;3.78;;;27.50;71.00;;;;;;4867098;29;20093;-80
2023/06/26 09:41:37;;;;;;;6.20;4.55;;;27.50;71.60;;;;;;4876278;29;20714;-79
2023/06/26 09:44:06;;;;;;;7.10;3.70;;;27.50;71.50;;;;;;4869326;29;20062;-79
2023/06/26 09:46:33;;;;;;;6.50;3.90;;;27.30;67.60;;;;;;4866680;29;20057;-79
2023/06/26 09:49:06;;;;;;;5.65;4.40;;;27.40;71.70;;;;;;4861140;29;20571;-79
2023/06/26 09:51:34;;;;;;;8.98;4.47;;;27.40;71.60;;;;;;4856091;29;20135;-79
2023/06/26 09:54:03;;;;;;;5.30;3.72;;;27.40;69.80;;;;;;4857948;29;22287;-79
2023/06/26 09:56:32;;;;;;;6.47;4.15;;;27.30;69.00;;;;;;4844765;29;20063;-79
2023/06/26 09:59:01;;;;;;;5.07;3.50;;;27.30;69.60;;;;;;4856304;29;20132;-82
2023/06/26 10:01:29;;;;;;;6.20;4.50;;;26.80;69.60;;;;;;4858624;29;20057;-80
2023/06/26 10:03:57;;;;;;;5.45;3.95;;;26.40;69.50;;;;;;4869536;29;20507;-79
2023/06/26 10:06:31;;;;;;;7.70;4.38;;;26.10;71.50;;;;;;4858522;29;20052;-79
2023/06/26 10:09:00;;;;;;;5.75;4.10;;;25.90;71.00;;;;;;4866405;29;20048;-80
2023/06/26 10:11:55;;;;;;;6.78;4.07;;;25.80;72.40;;;;;;4864580;29;21382;-79
2023/06/26 10:14:27;;;;;;;6.40;3.90;;;25.70;72.50;;;;;;4851624;29;20064;-79
2023/06/26 10:16:59;;;;;;;5.53;3.60;;;25.70;73.30;;;;;;4862056;29;20656;-80
2023/06/26 10:19:28;;;;;;;6.28;4.10;;;25.70;72.20;;;;;;4847813;29;20052;-80
2023/06/26 10:21:56;;;;;;;6.07;3.97;;;25.60;72.60;;;;;;4850040;29;20053;-80
2023/06/26 10:24:26;;;;;;;6.65;4.20;;;25.60;73.60;;;;;;4868995;29;20051;-79
2023/06/26 10:26:59;;;;;;;4.97;3.40;;;25.50;73.00;;;;;;4837893;29;20048;-79
2023/06/26 10:29:27;;;;;;;4.85;3.63;;;25.80;73.70;;;;;;4869440;29;20056;-80
2023/06/26 10:31:58;;;;;;;6.75;4.07;;;26.20;73.30;;;;;;4849093;29;20052;-79
2023/06/26 10:34:29;;;;;;;8.13;4.18;;;26.50;73.20;;;;;;4869600;29;20041;-79
2023/06/26 10:37:00;;;;;;;6.35;3.75;;;26.60;72.50;;;;;;4853454;29;20524;-78
2023/06/26 10:39:32;;;;;;;5.47;4.35;;;26.80;72.10;;;;;;4854887;29;20492;-79
2023/06/26 10:42:12;;;;;;;6.78;3.70;;;26.90;73.00;;;;;;4868811;29;20200;-79
2023/06/26 10:44:44;;;;;;;5.45;3.50;;;26.90;70.00;;;;;;4859077;29;20120;-80
2023/06/26 10:47:28;;;;;;;8.30;4.38;;;27.00;67.50;;;;;;4867681;29;20123;-79
2023/06/26 10:50:15;;;;;;;3.67;2.90;;;26.90;68.60;;;;;;4838982;29;20056;-79
2023/06/26 10:53:24;;;;;;;5.70;3.50;;;27.10;68.70;;;;;;4883676;29;20055;-80
2023/06/26 10:56:03;;;;;;;7.30;3.70;;;27.30;68.20;;;;;;4839482;29;20484;-79
2023/06/26 10:58:41;;;;;;;6.90;3.80;;;27.20;65.60;;;;;;4870268;29;20052;-79
2023/06/26 11:01:22;;;;;;;4.47;3.60;;;27.20;66.10;;;;;;4847461;29;20718;-79
2023/06/26 11:03:57;;;;;;;5.15;3.67;;;27.40;68.20;;;;;;4854952;29;20110;-79
2023/06/26 11:06:24;;;;;;;5.28;3.85;;;27.40;67.30;;;;;;4886807;29;20047;-79
2023/06/26 11:09:04;;;;;;;5.50;3.85;;;27.50;66.40;;;;;;4858514;29;20032;-79
2023/06/26 11:11:54;;;;;;;7.57;4.82;;;27.50;67.10;;;;;;4868780;29;20048;-79
2023/06/26 11:14:23;;;;;;;5.38;4.25;;;27.40;65.50;;;;;;4850214;29;22689;-80
2023/06/26 11:16:51;;;;;;;5.93;3.97;;;27.30;65.60;;;;;;4865286;29;20433;-78
2023/06/26 11:19:19;;;;;;;5.03;4.20;;;27.00;66.80;;;;;;4845390;29;20730;-79
2023/06/26 11:21:46;;;;;;;7.07;4.30;;;26.80;68.00;;;;;;4883159;29;20188;-79
2023/06/26 11:24:14;;;;;;;5.13;3.92;;;26.50;66.90;;;;;;4868959;29;20340;-79
2023/06/26 11:26:42;;;;;;;5.78;3.72;;;26.40;67.90;;;;;;4851256;29;20044;-79
2023/06/26 11:29:11;;;;;;;5.18;3.95;;;26.40;68.60;;;;;;4879927;29;20054;-79
2023/06/26 11:31:40;;;;;;;6.20;3.97;;;26.30;68.70;;;;;;4885394;29;20040;-78
2023/06/26 11:34:13;;;;;;;4.95;3.85;;;26.30;69.80;;;;;;4863760;29;20745;-81
2023/06/26 11:36:42;;;;;;;6.00;3.85;;;26.30;68.30;;;;;;4864798;29;20484;-81
2023/06/26 11:39:10;;;;;;;6.63;4.38;;;26.30;68.40;;;;;;4861979;29;20531;-80
2023/06/26 11:41:39;;;;;;;7.18;4.05;;;26.10;68.50;;;;;;4849607;29;22315;-80
2023/06/26 11:44:09;;;;;;;7.40;4.28;;;26.40;68.50;;;;;;4855042;29;20083;-80
2023/06/26 11:46:37;;;;;;;5.65;4.18;;;26.70;67.50;;;;;;4866070;29;20048;-78
2023/06/26 11:49:07;;;;;;;5.60;3.63;;;27.00;68.40;;;;;;4886976;29;20484;-80
2023/06/26 11:51:38;;;;;;;4.60;3.47;;;27.20;67.30;;;;;;4876250;29;20048;-79
2023/06/26 11:54:05;;;;;;;6.95;3.50;;;27.20;66.90;;;;;;4853445;29;20059;-80
2023/06/26 11:56:32;;;;;;;6.07;3.80;;;27.30;67.00;;;;;;4872074;29;20056;-79
2023/06/26 11:59:02;;;;;;;5.75;3.67;;;27.40;67.00;;;;;;4864909;29;20068;-80
2023/06/26 12:01:36;;;;;;;7.00;4.10;;;27.40;65.40;;;;;;4867409;29;20091;-79
2023/06/26 12:04:05;;;;;;;7.15;4.32;;;27.30;66.30;;;;;;4861436;29;20075;-79
2023/06/26 12:06:34;;;;;;;4.65;3.67;;;27.20;65.60;;;;;;4871387;29;20048;-80
2023/06/26 12:09:05;;;;;;;5.30;3.88;;;27.40;67.10;;;;;;4870875;29;20135;-81
2023/06/26 12:11:34;;;;;;;5.43;3.60;;;27.50;65.30;;;;;;4848068;29;20139;-78
2023/06/26 12:14:01;;;;;;;4.63;3.95;;;27.50;67.00;;;;;;4856777;29;20056;-79
2023/06/26 12:16:30;;;;;;;4.82;3.40;;;27.60;67.10;;;;;;4860028;29;20048;-80
2023/06/26 12:19:06;;;;;;;5.05;3.58;;;27.70;67.10;;;;;;4861619;29;20053;-79
2023/06/26 12:21:43;;;;;;;5.95;3.78;;;27.70;68.60;;;;;;4881362;29;22172;-80
2023/06/26 12:24:21;;;;;;;6.05;3.65;;;27.50;67.20;;;;;;4871343;29;20839;-79
2023/06/26 12:26:55;;;;;;;4.97;3.67;;;27.50;66.70;;;;;;4842957;29;20182;-81
2023/06/26 12:29:32;;;;;;;6.93;4.35;;;27.50;67.40;;;;;;4853521;29;20070;-80
2023/06/26 12:32:00;;;;;;;5.00;3.78;;;27.70;68.30;;;;;;4868432;29;20157;-79
2023/06/26 12:34:31;;;;;;;5.30;3.67;;;27.80;66.40;;;;;;4857773;29;20122;-79
2023/06/26 12:37:16;;;;;;;5.07;3.80;;;27.90;66.50;;;;;;4867122;29;20964;-81
2023/06/26 12:39:51;;;;;;;7.70;4.07;;;27.90;65.60;;;;;;4854210;29;20088;-82
2023/06/26 12:42:26;;;;;;;5.20;4.22;;;28.00;66.10;;;;;;4855995;29;20067;-79
2023/06/26 12:44:57;;;;;;;5.85;3.58;;;28.00;66.30;;;;;;4839663;29;22318;-83
2023/06/26 12:47:26;;;;;;;5.10;3.67;;;27.60;63.80;;;;;;4845089;29;20052;-79
2023/06/26 12:49:55;;;;;;;6.00;3.78;;;27.30;64.90;;;;;;4860074;29;20274;-80
2023/06/26 12:52:22;;;;;;;6.40;3.60;;;27.20;65.90;;;;;;4856618;29;20063;-82
2023/06/26 12:54:54;;;;;;;5.38;3.60;;;27.10;66.30;;;;;;4875185;29;20083;-80
2023/06/26 12:57:22;;;;;;;5.63;3.90;;;27.00;65.90;;;;;;4856842;29;20063;-80
2023/06/26 12:59:49;;;;;;;3.88;3.53;;;26.90;65.80;;;;;;4842714;29;20208;-79